createdAt,value
2018-11-21T00:01:09.171Z,25.57
2018-11-21T00:03:41.638Z,26.03
2018-11-21T00:06:14.129Z,28.33
2018-11-21T00:08:46.729Z,26.67
2018-11-21T00:11:18.867Z,28.53
2018-11-21T00:13:51.273Z,30.40
2018-11-21T00:16:22.817Z,29.70
2018-11-21T00:19:00.678Z,31.70
2018-11-21T00:21:29.549Z,33.83
2018-11-21T00:24:02.503Z,32.97
2018-11-21T00:26:33.965Z,34.60
2018-11-21T00:29:05.691Z,32.57
2018-11-21T00:31:36.818Z,37.00
2018-11-21T00:34:13.147Z,38.27
2018-11-21T00:36:52.650Z,35.33
2018-11-21T00:39:24.077Z,34.90
2018-11-21T00:42:00.922Z,37.43
2018-11-21T00:44:32.312Z,37.87
2018-11-21T00:47:03.815Z,39.60
2018-11-21T00:49:35.418Z,43.10
2018-11-21T00:52:28.717Z,40.10
2018-11-21T00:55:05.323Z,41.47
2018-11-21T00:57:36.512Z,41.33
2018-11-21T01:00:13.989Z,44.27
2018-11-21T01:02:45.714Z,42.23
2018-11-21T01:05:16.973Z,43.77
2018-11-21T01:07:50.583Z,44.73
2018-11-21T01:10:23.850Z,43.90
2018-11-21T01:12:55.501Z,44.93
2018-11-21T01:15:28.270Z,45.70
2018-11-21T01:17:59.283Z,45.73
2018-11-21T01:20:30.653Z,49.80
2018-11-21T01:23:03.160Z,45.10
2018-11-21T01:25:33.980Z,48.67
2018-11-21T01:28:05.341Z,48.90
2018-11-21T01:30:36.867Z,49.87
2018-11-21T01:33:09.702Z,46.60
2018-11-21T01:35:39.785Z,50.90
2018-11-21T01:38:11.437Z,50.17
2018-11-21T01:40:43.231Z,49.97
2018-11-21T01:43:15.143Z,49.10
2018-11-21T01:45:47.012Z,48.37
2018-11-21T01:48:18.582Z,46.40
2018-11-21T01:50:52.012Z,46.50
2018-11-21T01:53:23.530Z,49.00
2018-11-21T01:55:55.475Z,49.00
2018-11-21T01:58:28.809Z,46.27
2018-11-21T02:01:02.066Z,51.00
2018-11-21T02:03:40.666Z,45.83
2018-11-21T02:06:12.735Z,44.77
2018-11-21T02:08:45.749Z,47.13
2018-11-21T02:11:18.593Z,43.23
2018-11-21T02:13:53.134Z,44.80
2018-11-21T02:16:26.198Z,45.50
2018-11-21T02:18:59.929Z,47.67
2018-11-21T02:21:33.143Z,46.97
2018-11-21T02:24:12.211Z,45.30
2018-11-21T02:26:44.280Z,46.00
2018-11-21T02:29:16.884Z,47.20
2018-11-21T02:31:49.570Z,46.57
2018-11-21T02:34:22.165Z,45.93
2018-11-21T02:36:54.659Z,45.23
2018-11-21T02:39:31.960Z,46.70
2018-11-21T02:42:05.934Z,46.43
2018-11-21T02:44:40.181Z,48.03
2018-11-21T02:47:12.866Z,48.60
2018-11-21T02:49:45.713Z,52.50
2018-11-21T02:52:18.292Z,47.00
2018-11-21T02:54:53.278Z,48.27
2018-11-21T02:57:51.017Z,56.10
2018-11-21T03:00:39.788Z,48.43
2018-11-21T03:03:11.786Z,55.87
2018-11-21T03:05:45.017Z,55.33
2018-11-21T03:08:18.396Z,52.37
2018-11-21T03:10:51.286Z,55.17
2018-11-21T03:13:28.289Z,55.17
2018-11-21T03:15:59.439Z,55.77
2018-11-21T03:18:35.173Z,49.57
2018-11-21T03:21:12.916Z,57.63
2018-11-21T03:23:45.546Z,61.43
2018-11-21T03:26:18.771Z,60.20
2018-11-21T03:28:51.158Z,62.07
2018-11-21T03:31:24.316Z,67.50
2018-11-21T03:33:59.755Z,67.73
2018-11-21T03:36:31.684Z,57.40
2018-11-21T03:39:04.606Z,59.63
2018-11-21T03:41:37.266Z,67.27
2018-11-21T03:44:09.956Z,63.60
2018-11-21T03:46:49.785Z,57.90
2018-11-21T03:49:25.446Z,61.23
2018-11-21T03:52:03.150Z,63.10
2018-11-21T03:54:35.648Z,66.47
2018-11-21T03:57:08.515Z,67.80
2018-11-21T03:59:44.812Z,64.87
2018-11-21T04:02:17.445Z,66.20
2018-11-21T04:04:50.010Z,67.77
2018-11-21T04:07:23.059Z,65.00
2018-11-21T04:09:55.430Z,64.60
2018-11-21T04:12:27.967Z,70.77
2018-11-21T04:15:00.852Z,73.63
2018-11-21T04:17:33.293Z,65.03
2018-11-21T04:20:08.045Z,74.67
2018-11-21T04:22:40.621Z,66.27
2018-11-21T04:25:13.025Z,65.30
2018-11-21T04:27:46.517Z,67.10
2018-11-21T04:30:20.175Z,66.60
2018-11-21T04:32:57.478Z,60.23
2018-11-21T04:35:29.838Z,56.20
2018-11-21T04:38:02.574Z,60.47
2018-11-21T04:40:35.128Z,53.13
2018-11-21T04:43:07.390Z,54.33
2018-11-21T04:45:39.631Z,49.70
2018-11-21T04:48:12.937Z,52.27
2018-11-21T04:50:46.076Z,60.10
2018-11-21T04:53:21.153Z,62.03
2018-11-21T04:55:54.063Z,68.07
2018-11-21T04:58:26.531Z,53.60
2018-11-21T05:00:58.763Z,63.77
2018-11-21T05:03:31.448Z,58.27
2018-11-21T05:06:03.951Z,55.40
2018-11-21T05:08:36.189Z,60.77
2018-11-21T05:11:10.651Z,63.17
2018-11-21T05:13:43.257Z,64.43
2018-11-21T05:16:15.442Z,65.00
2018-11-21T05:18:48.921Z,62.63
2018-11-21T05:21:24.434Z,74.47
2018-11-21T05:23:58.011Z,69.97
2018-11-21T05:26:35.689Z,58.17
2018-11-21T05:29:07.942Z,59.20
2018-11-21T05:31:44.792Z,63.93
2018-11-21T05:34:17.444Z,63.67
2018-11-21T05:36:50.909Z,59.50
2018-11-21T05:39:24.419Z,59.03
2018-11-21T05:41:57.267Z,66.33
2018-11-21T05:44:31.359Z,72.27
2018-11-21T05:47:02.884Z,66.33
2018-11-21T05:49:35.260Z,64.40
2018-11-21T05:52:08.260Z,72.10
2018-11-21T05:54:46.236Z,74.40
2018-11-21T05:57:24.636Z,74.83
2018-11-21T06:00:00.967Z,71.87
2018-11-21T06:02:34.034Z,78.43
2018-11-21T06:05:06.641Z,75.37
2018-11-21T06:07:40.266Z,93.87
2018-11-21T06:10:16.180Z,81.00
2018-11-21T06:12:48.161Z,83.17
2018-11-21T06:15:19.396Z,72.30
2018-11-21T06:17:51.437Z,75.43
2018-11-21T06:20:22.984Z,67.43
2018-11-21T06:22:54.505Z,63.50
2018-11-21T06:25:29.240Z,63.30
2018-11-21T06:28:02.574Z,72.00
2018-11-21T06:30:33.961Z,72.97
2018-11-21T06:33:06.423Z,65.77
2018-11-21T06:35:38.448Z,63.07
2018-11-21T06:38:09.543Z,78.80
2018-11-21T06:40:40.100Z,76.50
2018-11-21T06:43:10.840Z,88.17
2018-11-21T06:45:41.261Z,89.43
2018-11-21T06:48:11.876Z,68.63
2018-11-21T06:50:43.215Z,73.93
2018-11-21T06:53:13.438Z,77.73
2018-11-21T06:55:43.692Z,87.73
2018-11-21T06:58:13.899Z,65.87
2018-11-21T07:00:44.536Z,80.27
2018-11-21T07:06:48.208Z,70.13
2018-11-21T07:09:18.628Z,71.17
2018-11-21T07:11:48.914Z,65.03
2018-11-21T07:14:19.532Z,70.57
2018-11-21T07:17:14.006Z,56.37
2018-11-21T07:19:45.632Z,66.67
2018-11-21T07:22:16.025Z,65.13
2018-11-21T07:24:54.865Z,68.47
2018-11-21T07:34:08.379Z,64.17
2018-11-21T07:36:39.007Z,64.60
2018-11-21T07:39:10.814Z,66.47
2018-11-21T07:41:42.112Z,69.83
2018-11-21T07:44:14.885Z,79.03
2018-11-21T07:46:44.917Z,60.83
2018-11-21T07:49:15.915Z,69.50
2018-11-21T07:51:59.864Z,63.47
2018-11-21T07:54:30.745Z,68.43
2018-11-21T07:57:52.138Z,65.87
2018-11-21T08:01:35.194Z,66.70
2018-11-21T08:04:17.043Z,60.20
2018-11-21T08:07:11.515Z,66.53
2018-11-21T08:10:02.021Z,66.23
2018-11-21T08:12:50.626Z,60.03
2018-11-21T08:16:01.631Z,67.73
2018-11-21T08:19:20.399Z,53.43
2018-11-21T08:22:12.274Z,53.57
2018-11-21T08:30:53.189Z,59.53
2018-11-21T08:33:24.853Z,53.60
2018-11-21T08:35:56.702Z,55.77
2018-11-21T08:38:29.359Z,50.07
2018-11-21T08:41:00.844Z,51.37
2018-11-21T08:43:34.467Z,52.00
2018-11-21T08:46:09.095Z,56.07
2018-11-21T08:48:41.543Z,46.07
2018-11-21T08:51:13.066Z,45.53
2018-11-21T08:53:44.887Z,47.47
2018-11-21T08:56:16.964Z,47.17
2018-11-21T08:58:50.889Z,43.93
2018-11-21T09:01:28.251Z,45.20
2018-11-21T09:04:00.531Z,43.97
2018-11-21T09:06:50.435Z,42.93
2018-11-21T09:09:21.870Z,42.20
2018-11-21T09:11:53.820Z,43.90
2018-11-21T09:14:26.001Z,42.30
2018-11-21T09:16:57.687Z,42.27
2018-11-21T09:19:29.605Z,42.97
2018-11-21T09:22:00.997Z,39.70
2018-11-21T09:24:49.439Z,42.43
2018-11-21T09:27:20.813Z,43.63
2018-11-21T09:29:52.689Z,40.93
2018-11-21T09:32:24.753Z,38.20
2018-11-21T09:34:55.830Z,37.40
2018-11-21T09:37:27.766Z,40.20
2018-11-21T09:40:32.685Z,35.07
2018-11-21T09:43:07.705Z,40.37
2018-11-21T09:45:39.334Z,35.90
2018-11-21T09:48:10.475Z,36.60
2018-11-21T09:50:42.389Z,37.27
2018-11-21T09:53:13.582Z,39.33
2018-11-21T09:55:45.923Z,37.67
2018-11-21T09:58:19.487Z,37.17
2018-11-21T10:01:29.107Z,36.93
2018-11-21T10:04:01.087Z,37.27
2018-11-21T10:06:38.348Z,35.47
2018-11-21T10:09:36.996Z,37.67
2018-11-21T10:12:09.962Z,35.67
2018-11-21T10:14:42.205Z,33.97
2018-11-21T10:17:15.438Z,35.57
2018-11-21T10:19:48.322Z,32.80
2018-11-21T10:22:21.747Z,35.43
2018-11-21T10:24:53.330Z,33.80
2018-11-21T10:27:25.086Z,34.13
2018-11-21T10:29:56.541Z,39.07
2018-11-21T10:32:28.173Z,33.10
2018-11-21T10:34:59.880Z,35.53
2018-11-21T10:37:38.077Z,33.00
2018-11-21T10:40:14.263Z,31.67
2018-11-21T10:42:48.059Z,34.43
2018-11-21T10:45:20.144Z,32.60
2018-11-21T10:47:52.195Z,31.50
2018-11-21T10:50:25.779Z,32.33
2018-11-21T10:52:58.840Z,31.33
2018-11-21T10:55:30.113Z,33.70
2018-11-21T10:58:06.793Z,32.87
2018-11-21T11:00:57.035Z,32.83
2018-11-21T11:03:30.558Z,31.07
2018-11-21T11:06:19.864Z,29.17
2018-11-21T11:12:10.355Z,27.73
2018-11-21T11:15:17.905Z,25.73
2018-11-21T11:18:09.511Z,24.13
2018-11-21T11:21:21.599Z,25.40
2018-11-21T11:24:13.206Z,28.60
2018-11-21T11:27:06.961Z,28.40
2018-11-21T11:29:58.306Z,22.67
2018-11-21T11:32:49.913Z,26.80
2018-11-21T11:35:41.476Z,25.10
2018-11-21T11:38:37.136Z,26.43
2018-11-21T11:42:17.186Z,25.70
2018-11-21T11:45:14.412Z,24.70
2018-11-21T11:48:17.637Z,23.73
2018-11-21T11:51:18.601Z,28.93
2018-11-21T11:54:16.176Z,26.90
2018-11-21T11:57:10.141Z,27.57
2018-11-21T12:00:00.472Z,27.23
2018-11-21T12:02:52.594Z,28.27
2018-11-21T12:05:44.106Z,24.33
2018-11-21T12:08:35.095Z,25.10
2018-11-21T12:14:20.884Z,25.70
2018-11-21T12:17:20.685Z,23.27
2018-11-21T12:20:23.605Z,22.07
2018-11-21T12:23:18.940Z,26.40
2018-11-21T12:26:14.033Z,24.83
2018-11-21T12:29:18.151Z,24.53
2018-11-21T12:32:17.918Z,23.60
2018-11-21T12:35:27.843Z,23.90
2018-11-21T12:38:18.836Z,25.93
2018-11-21T12:41:07.894Z,23.50
2018-11-21T12:43:57.551Z,23.73
2018-11-21T12:46:55.594Z,23.70
2018-11-21T12:49:46.867Z,25.23
2018-11-21T12:52:43.875Z,23.93
2018-11-21T12:55:33.207Z,23.30
2018-11-21T12:58:22.781Z,23.50
2018-11-21T13:01:22.797Z,23.07
2018-11-21T13:04:14.975Z,21.67
2018-11-21T13:07:11.104Z,23.03
2018-11-21T13:10:17.571Z,25.10
2018-11-21T13:13:04.282Z,23.47
2018-11-21T13:15:54.077Z,22.63
2018-11-21T13:18:50.941Z,23.43
2018-11-21T13:21:46.952Z,22.70
2018-11-21T13:24:40.203Z,22.97
2018-11-21T13:27:35.117Z,27.77
2018-11-21T13:30:24.925Z,25.10
2018-11-21T13:33:13.705Z,26.67
2018-11-21T13:36:05.387Z,23.10
2018-11-21T13:39:09.449Z,24.20
2018-11-21T13:42:01.469Z,28.00
2018-11-21T13:45:05.532Z,24.87
2018-11-21T13:48:04.881Z,30.23
2018-11-21T13:50:53.155Z,27.63
2018-11-21T13:53:48.405Z,53.97
2018-11-21T13:56:20.504Z,31.37
2018-11-21T13:58:52.371Z,28.47
2018-11-21T14:01:25.677Z,25.40
2018-11-21T14:03:58.588Z,30.63
2018-11-21T14:06:31.121Z,26.83
2018-11-21T14:09:14.527Z,26.33
2018-11-21T14:11:46.936Z,27.57
2018-11-21T14:14:22.409Z,27.33
2018-11-21T14:16:55.513Z,26.53
2018-11-21T14:19:27.976Z,26.47
2018-11-21T14:22:00.134Z,26.67
2018-11-21T14:24:32.934Z,23.80
2018-11-21T14:27:06.560Z,25.53
2018-11-21T14:29:38.556Z,22.83
2018-11-21T14:32:30.687Z,29.43
2018-11-21T14:35:00.168Z,28.03
2018-11-21T14:37:33.503Z,28.47
2018-11-21T14:40:09.774Z,27.67
2018-11-21T14:42:44.640Z,27.40
2018-11-21T14:45:18.013Z,27.77
2018-11-21T14:47:57.732Z,29.30
2018-11-21T14:50:53.316Z,24.33
2018-11-21T14:53:25.806Z,29.17
2018-11-21T14:55:58.884Z,27.60
2018-11-21T14:58:34.279Z,25.27
2018-11-21T15:01:06.833Z,27.87
2018-11-21T15:03:39.148Z,31.57
2018-11-21T15:06:12.646Z,33.23
2018-11-21T15:08:44.068Z,34.47
2018-11-21T15:11:13.671Z,29.83
2018-11-21T15:13:43.025Z,32.67
2018-11-21T15:16:15.313Z,29.83
2018-11-21T15:18:43.711Z,37.40
2018-11-21T15:21:16.731Z,32.40
2018-11-21T15:23:45.744Z,32.10
2018-11-21T15:26:16.545Z,32.77
2018-11-21T15:28:48.277Z,33.63
2018-11-21T15:31:17.729Z,32.47
2018-11-21T15:33:47.321Z,36.13
2018-11-21T15:36:16.615Z,32.97
2018-11-21T15:38:48.823Z,31.43
2018-11-21T15:41:18.101Z,34.67
2018-11-21T15:43:51.466Z,35.70
2018-11-21T15:46:21.136Z,32.77
2018-11-21T15:48:50.822Z,34.33
2018-11-21T15:51:23.043Z,34.50
2018-11-21T15:53:55.172Z,37.90
2018-11-21T15:56:24.513Z,34.57
2018-11-21T15:58:54.950Z,35.57
2018-11-21T16:01:25.108Z,35.60
2018-11-21T16:03:57.931Z,32.93
2018-11-21T16:06:30.145Z,36.17
2018-11-21T16:09:02.558Z,38.47
2018-11-21T16:11:32.277Z,35.63
2018-11-21T16:14:01.774Z,36.73
2018-11-21T16:16:31.084Z,38.23
2018-11-21T16:19:21.271Z,34.57
2018-11-21T16:21:52.463Z,33.67
2018-11-21T16:24:21.931Z,38.07
2018-11-21T16:26:53.919Z,33.27
2018-11-21T16:29:24.847Z,35.00
2018-11-21T16:31:54.248Z,38.20
2018-11-21T16:34:23.567Z,32.50
2018-11-21T16:36:55.237Z,35.07
2018-11-21T16:39:27.770Z,35.73
2018-11-21T16:41:59.422Z,34.63
2018-11-21T16:44:30.540Z,38.73
2018-11-21T16:46:59.242Z,34.80
2018-11-21T16:49:28.578Z,44.33
2018-11-21T16:51:58.168Z,42.90
2018-11-21T16:54:29.555Z,55.90
2018-11-21T16:57:02.591Z,82.20
2018-11-21T16:59:32.097Z,75.83
2018-11-21T17:02:03.904Z,52.87
2018-11-21T17:04:55.771Z,39.10
2018-11-21T17:07:26.066Z,46.43
2018-11-21T17:10:00.268Z,40.80
2018-11-21T17:12:29.743Z,36.27
2018-11-21T17:15:01.746Z,32.10
2018-11-21T17:17:31.251Z,32.53
2018-11-21T17:20:00.724Z,33.67
2018-11-21T17:22:30.077Z,32.23
2018-11-21T17:24:59.462Z,32.60
2018-11-21T17:27:29.876Z,34.13
2018-11-21T17:30:00.908Z,34.57
2018-11-21T17:32:34.299Z,34.23
2018-11-21T17:35:07.286Z,33.83
2018-11-21T17:37:38.287Z,32.13
2018-11-21T17:40:18.615Z,31.40
2018-11-21T17:42:55.246Z,31.80
2018-11-21T17:45:31.635Z,31.80
2018-11-21T17:48:04.866Z,29.70
2018-11-21T17:50:36.484Z,32.80
2018-11-21T17:53:09.734Z,29.83
2018-11-21T17:55:41.498Z,34.67
2018-11-21T17:58:13.351Z,36.27
2018-11-21T18:00:42.862Z,30.83
2018-11-21T18:03:13.636Z,32.70
2018-11-21T18:05:43.088Z,33.93
2018-11-21T18:08:15.371Z,33.93
2018-11-21T18:10:50.081Z,34.83
2018-11-21T18:13:22.041Z,33.37
2018-11-21T18:15:54.144Z,30.50
2018-11-21T18:18:28.583Z,34.40
2018-11-21T18:21:00.826Z,37.33
2018-11-21T18:23:33.253Z,36.47
2018-11-21T18:26:05.311Z,32.80
2018-11-21T18:28:38.040Z,35.00
2018-11-21T18:31:10.593Z,35.63
2018-11-21T18:33:44.409Z,36.87
2018-11-21T18:36:21.032Z,33.80
2018-11-21T18:39:03.008Z,36.63
2018-11-21T18:41:35.106Z,34.97
2018-11-21T18:44:07.445Z,32.03
2018-11-21T18:46:40.852Z,32.13
2018-11-21T18:49:12.599Z,34.07
2018-11-21T18:51:44.471Z,36.33
2018-11-21T18:54:17.621Z,32.60
2018-11-21T18:57:11.255Z,35.33
2018-11-21T19:00:11.187Z,32.10
2018-11-21T19:02:43.263Z,32.90
2018-11-21T19:05:18.118Z,35.83
2018-11-21T19:07:51.781Z,36.17
2018-11-21T19:10:26.855Z,38.20
2018-11-21T19:13:00.359Z,36.13
2018-11-21T19:15:35.392Z,36.50
2018-11-21T19:18:07.305Z,32.13
2018-11-21T19:20:39.346Z,33.87
2018-11-21T19:23:11.185Z,34.77
2018-11-21T19:25:42.911Z,31.10
2018-11-21T19:28:26.837Z,33.20
2018-11-21T19:30:58.504Z,33.87
2018-11-21T19:33:30.544Z,36.03
2018-11-21T19:36:06.730Z,32.47
2018-11-21T19:38:39.079Z,33.83
2018-11-21T19:41:13.900Z,35.67
2018-11-21T19:43:50.494Z,35.93
2018-11-21T19:46:26.973Z,33.20
2018-11-21T19:49:00.440Z,35.27
2018-11-21T19:51:54.599Z,33.83
2018-11-21T19:54:29.477Z,34.50
2018-11-21T19:57:06.511Z,33.73
2018-11-21T19:59:43.560Z,34.60
2018-11-21T20:02:16.100Z,35.30
2018-11-21T20:04:53.478Z,36.80
2018-11-21T20:07:25.676Z,32.90
2018-11-21T20:09:55.264Z,32.13
2018-11-21T20:12:28.365Z,36.13
2018-11-21T20:14:58.106Z,36.00
2018-11-21T20:17:27.942Z,31.90
2018-11-21T20:20:00.647Z,34.97
2018-11-21T20:22:30.356Z,34.60
2018-11-21T20:24:59.984Z,33.37
2018-11-21T20:27:29.819Z,36.20
2018-11-21T20:30:01.868Z,37.30
2018-11-21T20:32:36.872Z,31.40
2018-11-21T20:35:12.888Z,37.53
2018-11-21T20:37:45.457Z,34.23
2018-11-21T20:40:24.908Z,31.87
2018-11-21T20:42:55.117Z,39.67
2018-11-21T20:45:28.023Z,34.13
2018-11-21T20:48:05.677Z,32.93
2018-11-21T20:50:34.675Z,33.80
2018-11-21T20:53:04.854Z,34.53
2018-11-21T20:55:35.524Z,34.47
2018-11-21T20:58:08.264Z,36.17
2018-11-21T21:00:43.609Z,33.53
2018-11-21T21:03:16.843Z,33.47
2018-11-21T21:05:49.317Z,32.00
2018-11-21T21:08:19.063Z,34.37
2018-11-21T21:10:56.794Z,33.60
2018-11-21T21:13:35.682Z,35.77
2018-11-21T21:16:16.549Z,34.37
2018-11-21T21:18:55.106Z,33.03
2018-11-21T21:21:27.862Z,35.33
2018-11-21T21:24:04.083Z,34.37
2018-11-21T21:26:39.380Z,31.40
2018-11-21T21:29:13.089Z,32.80
2018-11-21T21:31:51.141Z,35.70
2018-11-21T21:34:25.135Z,34.03
2018-11-21T21:36:59.257Z,39.87
2018-11-21T21:39:32.912Z,33.33
2018-11-21T21:42:06.444Z,37.83
2018-11-21T21:44:44.609Z,37.17
2018-11-21T21:47:14.523Z,32.30
2018-11-21T21:49:46.687Z,35.90
2018-11-21T21:52:19.892Z,36.10
2018-11-21T21:54:57.685Z,32.77
2018-11-21T21:57:29.511Z,35.80
2018-11-21T21:59:59.154Z,32.30
2018-11-21T22:02:28.957Z,33.03
2018-11-21T22:04:58.711Z,34.40
2018-11-21T22:07:32.368Z,33.77
2018-11-21T22:10:08.107Z,34.83
2018-11-21T22:12:43.657Z,34.37
2018-11-21T22:15:36.714Z,34.40
2018-11-21T22:18:11.865Z,36.53
2018-11-21T22:20:41.603Z,35.77
2018-11-21T22:23:15.734Z,33.80
2018-11-21T22:25:45.454Z,34.53
2018-11-21T22:28:18.587Z,30.73
2018-11-21T22:30:48.262Z,35.60
2018-11-21T22:33:18.007Z,31.50
2018-11-21T22:35:47.621Z,34.40
2018-11-21T22:38:21.246Z,35.50
2018-11-21T22:40:50.819Z,32.43
2018-11-21T22:43:20.288Z,35.70
2018-11-21T22:45:52.528Z,34.57
2018-11-21T22:48:22.214Z,34.30
2018-11-21T22:50:53.208Z,33.27
2018-11-21T22:53:24.265Z,31.73
2018-11-21T22:55:59.278Z,33.27
2018-11-21T22:58:36.076Z,31.70
2018-11-21T23:01:13.760Z,32.27
2018-11-21T23:03:43.501Z,32.93
2018-11-21T23:06:15.683Z,36.93
2018-11-21T23:08:49.114Z,32.70
2018-11-21T23:11:24.171Z,34.17
2018-11-21T23:13:56.781Z,33.80
2018-11-21T23:16:30.850Z,35.53
2018-11-21T23:19:04.788Z,36.87
2018-11-21T23:21:44.256Z,33.33
2018-11-21T23:24:17.378Z,34.10
2018-11-21T23:26:50.697Z,33.30
2018-11-21T23:29:24.434Z,35.33
2018-11-21T23:31:59.557Z,34.70
2018-11-21T23:34:36.390Z,40.20
2018-11-21T23:37:10.667Z,33.17
2018-11-21T23:39:48.345Z,33.90
2018-11-21T23:42:27.343Z,33.57
2018-11-21T23:45:00.342Z,36.20
2018-11-21T23:47:35.995Z,34.50
2018-11-21T23:50:06.045Z,34.43
2018-11-21T23:52:40.144Z,37.70
2018-11-21T23:55:26.082Z,33.83
2018-11-21T23:58:20.911Z,34.20
